createdAt,value
2019-06-08T00:01:23.916Z,15.30
2019-06-08T00:03:52.842Z,15.30
2019-06-08T00:06:20.809Z,15.20
2019-06-08T00:08:48.634Z,15.10
2019-06-08T00:11:16.860Z,14.80
2019-06-08T00:13:44.724Z,14.60
2019-06-08T00:16:13.225Z,14.40
2019-06-08T00:18:40.971Z,14.30
2019-06-08T00:21:08.714Z,14.10
2019-06-08T00:23:36.462Z,14.00
2019-06-08T00:26:04.249Z,13.90
2019-06-08T00:28:32.049Z,13.80
2019-06-08T00:30:59.777Z,13.80
2019-06-08T00:33:27.504Z,13.70
2019-06-08T00:35:55.234Z,13.60
2019-06-08T00:38:23.060Z,13.60
2019-06-08T00:40:50.902Z,13.60
2019-06-08T00:43:19.158Z,13.60
2019-06-08T00:45:46.868Z,13.50
2019-06-08T00:48:14.566Z,13.40
2019-06-08T00:50:42.333Z,13.30
2019-06-08T00:53:10.054Z,13.30
2019-06-08T00:55:37.791Z,13.20
2019-06-08T00:58:05.600Z,13.10
2019-06-08T01:00:33.368Z,13.00
2019-06-08T01:03:01.103Z,13.00
2019-06-08T01:05:30.182Z,13.00
2019-06-08T01:07:57.937Z,13.00
2019-06-08T01:10:25.714Z,13.00
2019-06-08T01:12:53.415Z,13.00
2019-06-08T01:15:27.675Z,13.10
2019-06-08T01:18:02.002Z,13.10
2019-06-08T01:20:21.670Z,13.10
2019-06-08T01:22:49.551Z,13.10
2019-06-08T01:25:17.281Z,13.00
2019-06-08T01:27:45.317Z,13.00
2019-06-08T01:30:13.110Z,12.90
2019-06-08T01:32:40.835Z,12.80
2019-06-08T01:35:08.541Z,12.70
2019-06-08T01:37:36.272Z,12.60
2019-06-08T01:40:04.673Z,12.50
2019-06-08T01:42:32.409Z,12.50
2019-06-08T01:45:00.026Z,12.40
2019-06-08T01:47:28.287Z,12.40
2019-06-08T01:49:56.057Z,12.40
2019-06-08T01:52:24.630Z,12.30
2019-06-08T01:54:52.386Z,12.30
2019-06-08T01:57:20.150Z,12.30
2019-06-08T01:59:47.876Z,12.20
2019-06-08T02:02:15.603Z,12.10
2019-06-08T02:04:43.321Z,12.00
2019-06-08T02:07:11.053Z,11.90
2019-06-08T02:09:38.831Z,11.90
2019-06-08T02:12:06.601Z,11.90
2019-06-08T02:14:35.440Z,11.90
2019-06-08T02:17:03.197Z,11.80
2019-06-08T02:19:30.992Z,11.80
2019-06-08T02:21:58.694Z,11.70
2019-06-08T02:24:27.220Z,11.60
2019-06-08T02:26:54.968Z,11.60
2019-06-08T02:29:22.700Z,11.60
2019-06-08T02:31:50.403Z,11.50
2019-06-08T02:34:18.149Z,11.40
2019-06-08T02:36:45.841Z,11.40
2019-06-08T02:39:13.605Z,11.40
2019-06-08T02:41:41.339Z,11.50
2019-06-08T02:44:09.034Z,11.50
2019-06-08T02:46:38.239Z,11.50
2019-06-08T02:49:07.265Z,11.60
2019-06-08T02:51:36.455Z,11.60
2019-06-08T02:54:05.552Z,11.60
2019-06-08T02:56:34.150Z,11.60
2019-06-08T02:59:02.040Z,11.60
2019-06-08T03:01:31.297Z,11.60
2019-06-08T03:04:00.533Z,11.60
2019-06-08T03:06:32.226Z,11.60
2019-06-08T03:09:00.591Z,11.70
2019-06-08T03:11:28.328Z,11.70
2019-06-08T03:13:57.250Z,11.60
2019-06-08T03:16:24.961Z,11.70
2019-06-08T03:18:52.770Z,11.60
2019-06-08T03:21:20.531Z,11.60
2019-06-08T03:23:48.209Z,11.50
2019-06-08T03:26:15.971Z,11.40
2019-06-08T03:28:44.325Z,11.30
2019-06-08T03:31:12.227Z,11.20
2019-06-08T03:33:48.963Z,11.10
2019-06-08T03:36:09.451Z,11.00
2019-06-08T03:38:37.680Z,10.90
2019-06-08T03:41:05.536Z,10.90
2019-06-08T03:43:35.209Z,10.90
2019-06-08T03:46:02.767Z,10.90
2019-06-08T03:48:30.502Z,10.80
2019-06-08T03:50:58.265Z,10.80
2019-06-08T03:53:25.950Z,10.90
2019-06-08T03:55:53.678Z,10.90
2019-06-08T03:58:21.374Z,10.90
2019-06-08T04:00:49.293Z,10.90
2019-06-08T04:03:17.033Z,10.90
2019-06-08T04:05:46.438Z,10.90
2019-06-08T04:08:14.274Z,10.80
2019-06-08T04:10:42.688Z,10.70
2019-06-08T04:13:11.982Z,10.80
2019-06-08T04:15:40.324Z,10.80
2019-06-08T04:18:09.258Z,10.80
2019-06-08T04:20:37.971Z,10.70
2019-06-08T04:23:06.262Z,10.70
2019-06-08T04:25:34.150Z,10.70
2019-06-08T04:28:02.033Z,10.80
2019-06-08T04:30:29.718Z,11.10
2019-06-08T04:32:57.453Z,11.60
2019-06-08T04:35:25.186Z,12.00
2019-06-08T04:37:52.924Z,12.40
2019-06-08T04:40:20.669Z,12.70
2019-06-08T04:42:50.784Z,12.90
2019-06-08T04:45:17.900Z,13.00
2019-06-08T04:47:47.618Z,13.30
2019-06-08T04:50:22.778Z,13.70
2019-06-08T04:52:45.074Z,14.40
2019-06-08T04:55:13.251Z,14.90
2019-06-08T04:57:41.862Z,15.60
2019-06-08T05:00:12.971Z,16.60
2019-06-08T05:02:42.151Z,16.30
2019-06-08T05:05:09.573Z,17.10
2019-06-08T05:07:38.992Z,17.70
2019-06-08T05:10:08.926Z,18.70
2019-06-08T05:12:36.795Z,19.50
2019-06-08T05:15:04.913Z,20.60
2019-06-08T05:17:32.651Z,21.40
2019-06-08T05:20:00.417Z,22.20
2019-06-08T05:22:28.154Z,22.90
2019-06-08T05:24:55.886Z,23.50
2019-06-08T05:27:23.690Z,24.10
2019-06-08T05:29:51.404Z,24.40
2019-06-08T05:32:19.154Z,24.90
2019-06-08T05:34:47.572Z,25.40
2019-06-08T05:37:15.289Z,25.80
2019-06-08T05:39:43.581Z,26.40
2019-06-08T05:42:11.450Z,26.20
2019-06-08T05:44:39.588Z,26.70
2019-06-08T05:47:07.681Z,27.10
2019-06-08T05:49:35.381Z,27.30
2019-06-08T05:52:03.135Z,26.90
2019-06-08T05:54:30.841Z,28.00
2019-06-08T05:56:58.573Z,27.80
2019-06-08T05:59:26.312Z,28.70
2019-06-08T06:01:54.010Z,29.70
2019-06-08T06:04:21.758Z,30.40
2019-06-08T06:06:50.821Z,30.70
2019-06-08T06:09:18.845Z,30.50
2019-06-08T06:11:46.891Z,29.50
2019-06-08T06:14:14.585Z,28.20
2019-06-08T06:16:43.105Z,27.30
2019-06-08T06:19:11.035Z,26.70
2019-06-08T06:21:41.498Z,26.70
2019-06-08T06:24:09.361Z,27.10
2019-06-08T06:26:37.108Z,28.80
2019-06-08T06:29:04.845Z,29.90
2019-06-08T06:31:32.574Z,30.60
2019-06-08T06:34:00.312Z,30.60
2019-06-08T06:36:28.020Z,30.70
2019-06-08T06:38:55.753Z,31.30
2019-06-08T06:41:23.453Z,31.60
2019-06-08T06:43:52.210Z,30.10
2019-06-08T06:46:20.012Z,28.90
2019-06-08T06:48:48.283Z,29.70
2019-06-08T06:51:25.613Z,31.30
2019-06-08T06:53:46.625Z,32.10
2019-06-08T06:56:14.330Z,32.30
2019-06-08T06:58:43.064Z,33.70
2019-06-08T07:01:10.837Z,34.70
2019-06-08T07:03:38.582Z,33.50
2019-06-08T07:06:06.292Z,34.10
2019-06-08T07:08:34.030Z,35.00
2019-06-08T07:11:01.743Z,35.70
2019-06-08T07:13:29.470Z,36.40
2019-06-08T07:15:58.196Z,37.30
2019-06-08T07:18:26.110Z,36.80
2019-06-08T07:20:54.388Z,37.30
2019-06-08T07:23:22.125Z,36.40
2019-06-08T07:25:50.437Z,35.50
2019-06-08T07:28:18.174Z,34.80
2019-06-08T07:30:47.295Z,35.40
2019-06-08T07:33:15.513Z,35.90
2019-06-08T07:35:43.239Z,36.10
2019-06-08T07:38:11.080Z,36.30
2019-06-08T07:40:38.926Z,36.60
2019-06-08T07:43:06.776Z,36.70
2019-06-08T07:45:34.842Z,36.20
2019-06-08T07:48:02.823Z,35.70
2019-06-08T07:50:30.669Z,35.70
2019-06-08T07:52:58.853Z,35.30
2019-06-08T07:55:26.863Z,33.90
2019-06-08T07:57:54.574Z,32.80
2019-06-08T08:00:22.366Z,32.30
2019-06-08T08:02:50.186Z,31.80
2019-06-08T08:05:18.089Z,30.50
2019-06-08T08:07:46.015Z,28.90
2019-06-08T08:10:13.855Z,27.60
2019-06-08T08:12:41.632Z,25.40
2019-06-08T08:15:09.722Z,24.30
2019-06-08T08:17:37.421Z,23.30
2019-06-08T08:20:05.283Z,21.80
2019-06-08T08:22:32.994Z,21.30
2019-06-08T08:25:04.346Z,21.20
2019-06-08T08:27:30.333Z,21.20
2019-06-08T08:30:00.554Z,21.00
2019-06-08T08:32:28.259Z,20.90
2019-06-08T08:34:58.744Z,20.70
2019-06-08T08:37:27.991Z,20.50
2019-06-08T08:39:55.596Z,20.10
2019-06-08T08:42:23.330Z,20.00
2019-06-08T08:44:51.577Z,20.00
2019-06-08T08:47:20.306Z,20.00
2019-06-08T08:49:48.070Z,20.00
2019-06-08T08:52:17.447Z,19.90
2019-06-08T08:54:47.391Z,19.80
2019-06-08T08:57:15.188Z,19.70
2019-06-08T08:59:43.101Z,19.60
2019-06-08T09:02:11.504Z,19.80
2019-06-08T09:04:39.581Z,19.70
2019-06-08T09:07:10.292Z,19.70
2019-06-08T09:09:38.737Z,19.70
2019-06-08T09:12:08.367Z,19.80
2019-06-08T09:14:41.158Z,19.60
2019-06-08T09:17:08.329Z,19.30
2019-06-08T09:19:37.993Z,19.30
2019-06-08T09:22:04.952Z,19.30
2019-06-08T09:24:32.687Z,19.30
2019-06-08T09:27:02.884Z,19.40
2019-06-08T09:29:30.129Z,19.40
2019-06-08T09:31:59.080Z,19.40
2019-06-08T09:34:28.278Z,19.50
2019-06-08T09:36:59.731Z,19.60
2019-06-08T09:39:25.708Z,19.50
2019-06-08T09:41:54.189Z,19.50
2019-06-08T09:44:23.062Z,19.60
2019-06-08T09:46:50.789Z,19.70
2019-06-08T09:49:18.972Z,19.80
2019-06-08T09:51:48.624Z,19.90
2019-06-08T09:54:18.241Z,19.90
2019-06-08T09:56:47.775Z,19.90
2019-06-08T09:59:15.694Z,19.80
2019-06-08T10:01:44.838Z,19.80
2019-06-08T10:04:13.306Z,19.90
2019-06-08T10:06:41.126Z,19.70
2019-06-08T10:09:09.147Z,19.70
2019-06-08T10:11:37.996Z,19.80
2019-06-08T10:14:11.642Z,19.80
2019-06-08T10:16:38.014Z,19.50
2019-06-08T10:19:07.300Z,19.50
2019-06-08T10:21:34.482Z,19.60
2019-06-08T10:24:04.708Z,19.60
2019-06-08T10:26:31.715Z,19.80
2019-06-08T10:29:02.132Z,20.00
2019-06-08T10:31:38.790Z,20.10
2019-06-08T10:34:01.871Z,20.20
2019-06-08T10:36:28.452Z,20.00
2019-06-08T10:38:59.381Z,20.10
2019-06-08T10:41:27.813Z,20.10
2019-06-08T10:43:55.370Z,20.20
2019-06-08T10:46:23.530Z,20.10
2019-06-08T10:48:51.265Z,20.00
2019-06-08T10:51:18.979Z,20.00
2019-06-08T10:53:52.597Z,20.10
2019-06-08T10:56:18.657Z,20.20
2019-06-08T10:58:49.498Z,20.40
2019-06-08T11:01:15.250Z,20.40
2019-06-08T11:03:43.005Z,20.50
2019-06-08T11:06:13.105Z,20.30
2019-06-08T11:08:40.833Z,20.20
2019-06-08T11:11:09.771Z,20.20
2019-06-08T11:13:38.106Z,20.20
2019-06-08T11:16:06.662Z,20.30
2019-06-08T11:18:35.354Z,20.20
2019-06-08T11:21:03.669Z,20.30
2019-06-08T11:23:32.711Z,20.40
2019-06-08T11:26:04.664Z,20.40
2019-06-08T11:28:29.993Z,20.40
2019-06-08T11:30:57.784Z,20.40
2019-06-08T11:33:25.674Z,20.40
2019-06-08T11:35:53.401Z,20.40
2019-06-08T11:38:21.113Z,20.40
2019-06-08T11:40:48.856Z,20.50
2019-06-08T11:43:18.350Z,20.50
2019-06-08T11:45:48.067Z,20.60
2019-06-08T11:48:18.055Z,20.60
2019-06-08T11:50:45.230Z,20.70
2019-06-08T11:53:14.831Z,20.60
2019-06-08T11:55:42.906Z,20.40
2019-06-08T11:58:13.680Z,20.40
2019-06-08T12:01:13.284Z,20.40
2019-06-08T12:03:39.350Z,20.70
2019-06-08T12:06:09.449Z,21.00
2019-06-08T12:08:38.080Z,21.10
2019-06-08T12:11:10.648Z,21.20
2019-06-08T12:13:58.481Z,21.10
2019-06-08T12:16:28.115Z,21.00
2019-06-08T12:18:58.413Z,21.00
2019-06-08T12:21:27.257Z,21.10
2019-06-08T12:23:54.815Z,21.20
2019-06-08T12:26:22.703Z,21.30
2019-06-08T12:28:50.436Z,21.30
2019-06-08T12:31:22.420Z,21.40
2019-06-08T12:33:48.784Z,21.40
2019-06-08T12:36:17.859Z,21.30
2019-06-08T12:38:48.554Z,21.20
2019-06-08T12:41:15.994Z,21.30
2019-06-08T12:43:43.834Z,21.30
2019-06-08T12:46:13.036Z,21.30
2019-06-08T12:48:41.199Z,21.40
2019-06-08T12:51:11.378Z,21.40
2019-06-08T12:53:38.556Z,21.30
2019-06-08T12:56:08.778Z,21.30
2019-06-08T12:58:35.831Z,21.40
2019-06-08T13:01:03.792Z,21.50
2019-06-08T13:03:31.621Z,21.50
2019-06-08T13:05:59.387Z,21.50
2019-06-08T13:08:28.647Z,21.50
2019-06-08T13:10:57.461Z,21.60
2019-06-08T13:13:28.100Z,21.70
2019-06-08T13:15:57.902Z,21.70
2019-06-08T13:18:25.233Z,21.60
2019-06-08T13:20:52.946Z,21.60
2019-06-08T13:23:21.368Z,21.60
2019-06-08T13:25:49.157Z,21.60
2019-06-08T13:28:23.621Z,21.60
2019-06-08T13:30:47.850Z,21.80
2019-06-08T13:33:16.292Z,21.90
2019-06-08T13:35:44.074Z,21.90
2019-06-08T13:38:12.652Z,21.90
2019-06-08T13:40:40.498Z,22.10
2019-06-08T13:43:08.337Z,22.20
2019-06-08T13:45:35.967Z,22.10
2019-06-08T13:48:03.757Z,22.10
2019-06-08T13:50:31.464Z,22.10
2019-06-08T13:52:59.178Z,22.10
2019-06-08T13:55:47.732Z,22.10
2019-06-08T13:57:58.099Z,22.20
2019-06-08T14:00:38.114Z,22.30
2019-06-08T14:03:08.254Z,22.20
2019-06-08T14:05:38.528Z,22.20
2019-06-08T14:08:05.390Z,22.40
2019-06-08T14:10:38.522Z,22.40
2019-06-08T14:13:06.763Z,22.30
2019-06-08T14:15:34.553Z,22.50
2019-06-08T14:18:02.493Z,22.60
2019-06-08T14:20:34.280Z,22.70
2019-06-08T14:23:00.117Z,22.70
2019-06-08T14:25:28.887Z,22.60
2019-06-08T14:27:57.657Z,22.60
2019-06-08T14:30:28.052Z,22.60
2019-06-08T14:32:54.960Z,22.50
2019-06-08T14:35:24.196Z,22.60
2019-06-08T14:37:52.346Z,22.70
2019-06-08T14:40:21.328Z,22.90
2019-06-08T14:42:49.070Z,22.80
2019-06-08T14:45:18.192Z,22.70
2019-06-08T14:47:47.554Z,22.70
2019-06-08T14:50:15.423Z,22.60
2019-06-08T14:52:43.193Z,22.70
2019-06-08T14:55:11.177Z,22.80
2019-06-08T14:57:40.300Z,22.90
2019-06-08T15:00:11.928Z,22.90
2019-06-08T15:02:38.101Z,22.90
2019-06-08T15:05:07.869Z,22.90
2019-06-08T15:07:35.736Z,22.90
2019-06-08T15:10:04.053Z,22.90
2019-06-08T15:12:31.850Z,22.80
2019-06-08T15:14:59.654Z,22.80
2019-06-08T15:17:28.956Z,22.80
2019-06-08T15:19:58.553Z,22.90
2019-06-08T15:22:28.707Z,22.90
2019-06-08T15:24:57.903Z,22.90
2019-06-08T15:27:26.564Z,22.90
2019-06-08T15:29:54.927Z,22.90
2019-06-08T15:32:22.967Z,23.00
2019-06-08T15:34:51.103Z,23.10
2019-06-08T15:37:18.781Z,23.10
2019-06-08T15:39:48.639Z,23.00
2019-06-08T15:42:18.025Z,23.00
2019-06-08T15:44:47.825Z,22.90
2019-06-08T15:47:17.685Z,22.90
2019-06-08T15:49:44.947Z,22.90
2019-06-08T15:52:12.712Z,23.00
2019-06-08T15:54:41.053Z,23.10
2019-06-08T15:57:08.905Z,23.20
2019-06-08T15:59:41.432Z,23.10
2019-06-08T16:02:08.471Z,23.10
2019-06-08T16:04:36.159Z,23.00
2019-06-08T16:07:04.553Z,23.00
2019-06-08T16:09:32.575Z,23.00
2019-06-08T16:12:00.356Z,23.10
2019-06-08T16:14:28.835Z,23.10
2019-06-08T16:16:56.657Z,23.10
2019-06-08T16:19:25.355Z,23.10
2019-06-08T16:21:53.138Z,23.10
2019-06-08T16:24:22.700Z,23.10
2019-06-08T16:26:53.557Z,23.20
2019-06-08T16:29:20.229Z,23.10
2019-06-08T16:31:48.021Z,23.20
2019-06-08T16:34:15.730Z,23.20
2019-06-08T16:36:44.066Z,23.20
2019-06-08T16:39:11.821Z,23.20
2019-06-08T16:41:40.261Z,23.20
2019-06-08T16:44:08.341Z,23.10
2019-06-08T16:46:36.547Z,23.10
2019-06-08T16:49:04.529Z,23.10
2019-06-08T16:51:34.022Z,23.10
2019-06-08T16:54:01.809Z,23.10
2019-06-08T16:56:30.070Z,23.10
2019-06-08T16:58:57.925Z,23.10
2019-06-08T17:01:25.657Z,23.00
2019-06-08T17:03:53.441Z,23.00
2019-06-08T17:06:21.163Z,23.00
2019-06-08T17:08:48.938Z,23.00
2019-06-08T17:11:16.727Z,23.00
2019-06-08T17:13:44.485Z,23.00
2019-06-08T17:16:12.230Z,22.90
2019-06-08T17:18:40.398Z,22.90
2019-06-08T17:21:08.059Z,22.90
2019-06-08T17:23:36.540Z,22.80
2019-06-08T17:26:04.600Z,22.80
2019-06-08T17:28:33.218Z,22.70
2019-06-08T17:31:01.038Z,22.70
2019-06-08T17:33:28.818Z,22.70
2019-06-08T17:35:56.534Z,22.70
2019-06-08T17:38:24.315Z,22.70
2019-06-08T17:40:52.095Z,22.70
2019-06-08T17:43:19.805Z,22.70
2019-06-08T17:45:47.524Z,22.70
2019-06-08T17:48:15.237Z,22.70
2019-06-08T17:50:43.073Z,22.70
2019-06-08T17:53:10.767Z,22.70
2019-06-08T17:55:39.463Z,22.70
2019-06-08T17:58:07.273Z,22.70
2019-06-08T18:00:35.382Z,22.70
2019-06-08T18:03:03.055Z,22.70
2019-06-08T18:05:30.849Z,22.70
2019-06-08T18:07:58.530Z,22.70
2019-06-08T18:10:27.755Z,22.70
2019-06-08T18:12:58.484Z,22.60
2019-06-08T18:15:25.258Z,22.60
2019-06-08T18:17:52.994Z,22.60
2019-06-08T18:20:20.950Z,22.50
2019-06-08T18:22:49.451Z,22.50
2019-06-08T18:25:17.757Z,22.40
2019-06-08T18:28:02.644Z,22.40
2019-06-08T18:30:18.478Z,22.30
2019-06-08T18:32:46.310Z,22.20
2019-06-08T18:35:14.710Z,22.10
2019-06-08T18:37:42.913Z,22.10
2019-06-08T18:40:11.913Z,22.10
2019-06-08T18:42:41.513Z,22.00
2019-06-08T18:45:11.113Z,22.00
2019-06-08T18:47:40.319Z,22.00
2019-06-08T18:50:09.061Z,22.00
2019-06-08T18:52:40.579Z,21.90
2019-06-08T18:55:08.315Z,21.90
2019-06-08T18:57:38.121Z,21.90
2019-06-08T19:00:09.238Z,21.80
2019-06-08T19:02:38.305Z,21.60
2019-06-08T19:05:04.873Z,21.50
2019-06-08T19:07:32.651Z,21.40
2019-06-08T19:10:00.530Z,21.30
2019-06-08T19:12:29.360Z,21.20
2019-06-08T19:14:58.565Z,21.20
2019-06-08T19:17:28.429Z,21.10
2019-06-08T19:19:58.000Z,21.00
2019-06-08T19:22:29.958Z,20.90
2019-06-08T19:24:55.177Z,20.90
2019-06-08T19:27:22.970Z,20.80
2019-06-08T19:29:51.677Z,20.70
2019-06-08T19:32:19.819Z,20.60
2019-06-08T19:34:52.834Z,20.50
2019-06-08T19:37:17.359Z,20.40
2019-06-08T19:39:46.477Z,20.40
2019-06-08T19:42:14.689Z,20.30
2019-06-08T19:44:50.724Z,20.20
2019-06-08T19:47:12.008Z,20.10
2019-06-08T19:49:40.369Z,20.00
2019-06-08T19:52:09.033Z,20.00
2019-06-08T19:54:38.293Z,19.90
2019-06-08T19:57:07.775Z,19.90
2019-06-08T19:59:38.094Z,19.80
2019-06-08T20:02:05.148Z,19.80
2019-06-08T20:04:32.856Z,19.90
2019-06-08T20:07:00.769Z,19.90
2019-06-08T20:09:28.602Z,19.90
2019-06-08T20:11:59.816Z,19.80
2019-06-08T20:14:25.905Z,19.80
2019-06-08T20:16:53.613Z,19.70
2019-06-08T20:19:21.649Z,19.70
2019-06-08T20:21:51.454Z,19.60
2019-06-08T20:24:18.964Z,19.60
2019-06-08T20:26:49.017Z,19.50
2019-06-08T20:29:16.605Z,19.50
2019-06-08T20:31:45.479Z,19.40
2019-06-08T20:34:13.870Z,19.30
2019-06-08T20:36:42.503Z,19.20
2019-06-08T20:39:10.213Z,19.20
2019-06-08T20:41:38.522Z,19.10
2019-06-08T20:44:08.292Z,19.10
2019-06-08T20:46:37.640Z,19.00
2019-06-08T20:49:05.293Z,18.90
2019-06-08T20:51:33.042Z,18.90
2019-06-08T20:54:00.775Z,18.80
2019-06-08T20:56:28.481Z,18.80
2019-06-08T20:58:57.414Z,18.70
2019-06-08T21:01:25.205Z,18.70
2019-06-08T21:03:54.157Z,18.60
2019-06-08T21:06:21.913Z,18.60
2019-06-08T21:08:51.508Z,18.50
2019-06-08T21:11:19.180Z,18.40
2019-06-08T21:13:49.624Z,18.30
2019-06-08T21:16:18.194Z,18.30
2019-06-08T21:18:46.819Z,18.30
2019-06-08T21:21:14.794Z,18.20
2019-06-08T21:23:42.509Z,18.20
2019-06-08T21:26:10.220Z,18.20
2019-06-08T21:28:38.564Z,18.20
2019-06-08T21:31:08.319Z,18.10
2019-06-08T21:33:37.985Z,18.10
2019-06-08T21:36:08.624Z,18.00
2019-06-08T21:38:37.535Z,18.00
2019-06-08T21:41:04.797Z,18.00
2019-06-08T21:43:32.502Z,18.00
2019-06-08T21:46:01.088Z,18.00
2019-06-08T21:48:28.962Z,18.00
2019-06-08T21:51:01.035Z,17.90
2019-06-08T21:53:27.540Z,17.90
2019-06-08T21:55:56.274Z,17.90
2019-06-08T21:58:24.071Z,17.90
2019-06-08T22:00:52.663Z,17.90
2019-06-08T22:03:20.734Z,17.90
2019-06-08T22:05:49.767Z,17.80
2019-06-08T22:08:17.617Z,17.80
2019-06-08T22:10:47.161Z,17.80
2019-06-08T22:13:17.289Z,17.70
2019-06-08T22:15:44.511Z,17.70
2019-06-08T22:18:12.240Z,17.70
2019-06-08T22:20:40.013Z,17.70
2019-06-08T22:23:07.772Z,17.70
2019-06-08T22:25:35.525Z,17.60
2019-06-08T22:28:03.988Z,17.60
2019-06-08T22:30:39.144Z,17.60
2019-06-08T22:33:01.305Z,17.60
2019-06-08T22:35:29.117Z,17.60
2019-06-08T22:37:58.023Z,17.50
2019-06-08T22:40:28.111Z,17.40
2019-06-08T22:42:57.743Z,17.30
2019-06-08T22:45:25.549Z,17.30
2019-06-08T22:47:54.451Z,17.30
2019-06-08T22:50:22.306Z,17.40
2019-06-08T22:52:49.957Z,17.40
2019-06-08T22:55:19.128Z,17.40
2019-06-08T22:57:47.950Z,17.40
2019-06-08T23:00:18.132Z,17.40
2019-06-08T23:02:45.533Z,17.40
2019-06-08T23:05:14.028Z,17.40
2019-06-08T23:07:41.881Z,17.30
2019-06-08T23:10:09.588Z,17.30
2019-06-08T23:12:38.187Z,17.40
2019-06-08T23:15:07.798Z,17.40
2019-06-08T23:17:38.600Z,17.40
2019-06-08T23:20:08.376Z,17.40
2019-06-08T23:22:38.180Z,17.40
2019-06-08T23:25:08.873Z,17.30
2019-06-08T23:27:34.830Z,17.30
2019-06-08T23:30:03.808Z,17.30
2019-06-08T23:32:32.340Z,17.30
2019-06-08T23:35:00.716Z,17.20
2019-06-08T23:37:28.498Z,17.20
2019-06-08T23:39:57.954Z,17.10
2019-06-08T23:42:27.316Z,17.10
2019-06-08T23:44:57.986Z,17.10
2019-06-08T23:47:27.363Z,17.10
2019-06-08T23:49:54.940Z,17.20
2019-06-08T23:52:22.753Z,17.30
2019-06-08T23:54:50.441Z,17.30
2019-06-08T23:57:18.175Z,17.30
2019-06-08T23:59:47.807Z,17.20
